sensor_id;sensor_type;location;lat;lon;timestamp;P1;durP1;ratioP1;P2;durP2;ratioP2
28028;SDS011;15345;59.364;18.016;2022-07-01T00:00:20;10.20;;;9.40;;
28028;SDS011;15345;59.364;18.016;2022-07-01T00:01:40;9.77;;;9.00;;
28028;SDS011;15345;59.364;18.016;2022-07-01T00:02:59;9.88;;;8.93;;
28028;SDS011;15345;59.364;18.016;2022-07-01T00:04:18;9.98;;;9.18;;
28028;SDS011;15345;59.364;18.016;2022-07-01T00:05:37;11.18;;;9.38;;
28028;SDS011;15345;59.364;18.016;2022-07-01T00:06:56;9.73;;;9.02;;
28028;SDS011;15345;59.364;18.016;2022-07-01T00:08:15;10.00;;;9.23;;
28028;SDS011;15345;59.364;18.016;2022-07-01T00:09:34;9.73;;;9.13;;
28028;SDS011;15345;59.364;18.016;2022-07-01T00:10:53;10.18;;;9.38;;
28028;SDS011;15345;59.364;18.016;2022-07-01T00:12:12;10.23;;;9.43;;
28028;SDS011;15345;59.364;18.016;2022-07-01T00:13:32;9.35;;;8.68;;
28028;SDS011;15345;59.364;18.016;2022-07-01T00:14:51;10.45;;;9.68;;
28028;SDS011;15345;59.364;18.016;2022-07-01T00:16:10;9.85;;;9.05;;
28028;SDS011;15345;59.364;18.016;2022-07-01T00:17:28;9.82;;;9.18;;
28028;SDS011;15345;59.364;18.016;2022-07-01T00:18:47;10.43;;;9.60;;
28028;SDS011;15345;59.364;18.016;2022-07-01T00:20:06;10.90;;;9.88;;
28028;SDS011;15345;59.364;18.016;2022-07-01T00:21:29;10.57;;;9.77;;
28028;SDS011;15345;59.364;18.016;2022-07-01T00:22:48;10.45;;;9.60;;
28028;SDS011;15345;59.364;18.016;2022-07-01T00:24:07;10.65;;;9.93;;
28028;SDS011;15345;59.364;18.016;2022-07-01T00:25:26;10.18;;;9.25;;
28028;SDS011;15345;59.364;18.016;2022-07-01T00:26:45;10.68;;;9.88;;
28028;SDS011;15345;59.364;18.016;2022-07-01T00:28:04;10.38;;;9.57;;
28028;SDS011;15345;59.364;18.016;2022-07-01T00:29:23;10.43;;;9.63;;
28028;SDS011;15345;59.364;18.016;2022-07-01T00:30:42;10.23;;;9.32;;
28028;SDS011;15345;59.364;18.016;2022-07-01T00:32:01;10.38;;;9.57;;
28028;SDS011;15345;59.364;18.016;2022-07-01T00:33:20;10.15;;;9.48;;
28028;SDS011;15345;59.364;18.016;2022-07-01T00:34:39;10.48;;;9.57;;
28028;SDS011;15345;59.364;18.016;2022-07-01T00:35:58;10.90;;;9.90;;
28028;SDS011;15345;59.364;18.016;2022-07-01T00:37:17;10.27;;;9.50;;
28028;SDS011;15345;59.364;18.016;2022-07-01T00:38:36;10.38;;;9.68;;
28028;SDS011;15345;59.364;18.016;2022-07-01T00:39:55;10.10;;;9.27;;
28028;SDS011;15345;59.364;18.016;2022-07-01T00:41:14;10.30;;;9.25;;
28028;SDS011;15345;59.364;18.016;2022-07-01T00:42:38;11.40;;;10.38;;
28028;SDS011;15345;59.364;18.016;2022-07-01T00:43:57;10.20;;;9.40;;
28028;SDS011;15345;59.364;18.016;2022-07-01T00:45:16;10.15;;;9.25;;
28028;SDS011;15345;59.364;18.016;2022-07-01T00:46:34;10.15;;;9.35;;
28028;SDS011;15345;59.364;18.016;2022-07-01T00:47:53;10.90;;;9.93;;
28028;SDS011;15345;59.364;18.016;2022-07-01T00:49:12;10.32;;;9.55;;
28028;SDS011;15345;59.364;18.016;2022-07-01T00:50:33;9.73;;;8.85;;
28028;SDS011;15345;59.364;18.016;2022-07-01T00:51:52;9.95;;;9.23;;
28028;SDS011;15345;59.364;18.016;2022-07-01T00:53:14;11.18;;;10.18;;
28028;SDS011;15345;59.364;18.016;2022-07-01T00:54:34;10.98;;;10.07;;
28028;SDS011;15345;59.364;18.016;2022-07-01T00:55:53;10.52;;;9.60;;
28028;SDS011;15345;59.364;18.016;2022-07-01T00:57:12;10.40;;;9.55;;
28028;SDS011;15345;59.364;18.016;2022-07-01T00:58:31;9.77;;;9.07;;
28028;SDS011;15345;59.364;18.016;2022-07-01T00:59:50;9.63;;;8.82;;
28028;SDS011;15345;59.364;18.016;2022-07-01T01:01:09;10.57;;;9.77;;
28028;SDS011;15345;59.364;18.016;2022-07-01T01:02:28;10.75;;;9.85;;
28028;SDS011;15345;59.364;18.016;2022-07-01T01:03:47;11.43;;;10.45;;
28028;SDS011;15345;59.364;18.016;2022-07-01T01:05:07;10.30;;;9.43;;
28028;SDS011;15345;59.364;18.016;2022-07-01T01:06:26;10.60;;;9.70;;
28028;SDS011;15345;59.364;18.016;2022-07-01T01:07:47;10.55;;;9.75;;
28028;SDS011;15345;59.364;18.016;2022-07-01T01:09:05;10.07;;;9.48;;
28028;SDS011;15345;59.364;18.016;2022-07-01T01:10:24;10.60;;;9.68;;
28028;SDS011;15345;59.364;18.016;2022-07-01T01:11:44;10.85;;;9.90;;
28028;SDS011;15345;59.364;18.016;2022-07-01T01:13:04;10.75;;;9.80;;
28028;SDS011;15345;59.364;18.016;2022-07-01T01:14:23;10.50;;;9.70;;
28028;SDS011;15345;59.364;18.016;2022-07-01T01:15:42;10.40;;;9.68;;
28028;SDS011;15345;59.364;18.016;2022-07-01T01:17:01;10.00;;;9.20;;
28028;SDS011;15345;59.364;18.016;2022-07-01T01:18:20;10.77;;;9.85;;
28028;SDS011;15345;59.364;18.016;2022-07-01T01:19:40;10.48;;;9.68;;
28028;SDS011;15345;59.364;18.016;2022-07-01T01:20:59;10.30;;;9.48;;
28028;SDS011;15345;59.364;18.016;2022-07-01T01:22:18;10.30;;;9.40;;
28028;SDS011;15345;59.364;18.016;2022-07-01T01:23:37;11.32;;;10.43;;
28028;SDS011;15345;59.364;18.016;2022-07-01T01:24:56;11.02;;;10.13;;
28028;SDS011;15345;59.364;18.016;2022-07-01T01:26:16;10.48;;;9.52;;
28028;SDS011;15345;59.364;18.016;2022-07-01T01:27:36;11.55;;;10.75;;
28028;SDS011;15345;59.364;18.016;2022-07-01T01:28:57;12.45;;;10.75;;
28028;SDS011;15345;59.364;18.016;2022-07-01T01:30:16;11.70;;;10.57;;
28028;SDS011;15345;59.364;18.016;2022-07-01T01:31:35;11.30;;;10.38;;
28028;SDS011;15345;59.364;18.016;2022-07-01T01:32:54;11.65;;;10.63;;
28028;SDS011;15345;59.364;18.016;2022-07-01T01:34:13;11.88;;;10.73;;
28028;SDS011;15345;59.364;18.016;2022-07-01T01:35:32;10.98;;;9.95;;
28028;SDS011;15345;59.364;18.016;2022-07-01T01:36:51;11.98;;;10.80;;
28028;SDS011;15345;59.364;18.016;2022-07-01T01:38:10;11.43;;;10.40;;
28028;SDS011;15345;59.364;18.016;2022-07-01T01:39:29;12.48;;;11.38;;
28028;SDS011;15345;59.364;18.016;2022-07-01T01:40:48;11.88;;;10.98;;
28028;SDS011;15345;59.364;18.016;2022-07-01T01:42:08;10.77;;;9.95;;
28028;SDS011;15345;59.364;18.016;2022-07-01T01:43:27;12.07;;;11.00;;
28028;SDS011;15345;59.364;18.016;2022-07-01T01:44:46;10.07;;;9.38;;
28028;SDS011;15345;59.364;18.016;2022-07-01T01:46:05;11.80;;;10.13;;
28028;SDS011;15345;59.364;18.016;2022-07-01T01:47:24;10.10;;;9.32;;
28028;SDS011;15345;59.364;18.016;2022-07-01T01:48:43;11.07;;;10.18;;
28028;SDS011;15345;59.364;18.016;2022-07-01T01:50:04;12.15;;;11.02;;
28028;SDS011;15345;59.364;18.016;2022-07-01T01:51:23;11.25;;;10.10;;
28028;SDS011;15345;59.364;18.016;2022-07-01T01:52:42;10.80;;;10.10;;
28028;SDS011;15345;59.364;18.016;2022-07-01T01:54:02;10.45;;;9.60;;
28028;SDS011;15345;59.364;18.016;2022-07-01T01:55:21;10.68;;;9.85;;
28028;SDS011;15345;59.364;18.016;2022-07-01T01:56:40;11.10;;;10.13;;
28028;SDS011;15345;59.364;18.016;2022-07-01T01:57:58;10.18;;;9.38;;
28028;SDS011;15345;59.364;18.016;2022-07-01T01:59:17;9.98;;;9.07;;
28028;SDS011;15345;59.364;18.016;2022-07-01T02:00:36;10.38;;;9.68;;
28028;SDS011;15345;59.364;18.016;2022-07-01T02:01:56;9.77;;;9.07;;
28028;SDS011;15345;59.364;18.016;2022-07-01T02:03:15;9.63;;;8.88;;
28028;SDS011;15345;59.364;18.016;2022-07-01T02:04:34;10.57;;;9.75;;
28028;SDS011;15345;59.364;18.016;2022-07-01T02:05:53;11.30;;;10.45;;
28028;SDS011;15345;59.364;18.016;2022-07-01T02:07:12;9.93;;;9.13;;
28028;SDS011;15345;59.364;18.016;2022-07-01T02:08:31;10.00;;;9.23;;
28028;SDS011;15345;59.364;18.016;2022-07-01T02:09:50;9.90;;;9.10;;
28028;SDS011;15345;59.364;18.016;2022-07-01T02:11:09;9.70;;;8.93;;
28028;SDS011;15345;59.364;18.016;2022-07-01T02:12:28;9.27;;;8.57;;
28028;SDS011;15345;59.364;18.016;2022-07-01T02:13:47;9.82;;;8.88;;
28028;SDS011;15345;59.364;18.016;2022-07-01T02:15:06;9.05;;;8.45;;
28028;SDS011;15345;59.364;18.016;2022-07-01T02:16:26;9.98;;;9.10;;
28028;SDS011;15345;59.364;18.016;2022-07-01T02:17:45;10.50;;;9.70;;
28028;SDS011;15345;59.364;18.016;2022-07-01T02:19:04;9.77;;;9.07;;
28028;SDS011;15345;59.364;18.016;2022-07-01T02:20:23;9.88;;;9.13;;
28028;SDS011;15345;59.364;18.016;2022-07-01T02:21:42;10.90;;;10.10;;
28028;SDS011;15345;59.364;18.016;2022-07-01T02:23:02;10.85;;;9.95;;
28028;SDS011;15345;59.364;18.016;2022-07-01T02:24:21;9.70;;;9.00;;
28028;SDS011;15345;59.364;18.016;2022-07-01T02:25:40;10.75;;;9.85;;
28028;SDS011;15345;59.364;18.016;2022-07-01T02:26:59;10.45;;;9.50;;
28028;SDS011;15345;59.364;18.016;2022-07-01T02:28:18;11.00;;;10.10;;
28028;SDS011;15345;59.364;18.016;2022-07-01T02:29:37;10.63;;;9.93;;
28028;SDS011;15345;59.364;18.016;2022-07-01T02:30:56;10.93;;;9.90;;
28028;SDS011;15345;59.364;18.016;2022-07-01T02:32:15;9.93;;;9.13;;
28028;SDS011;15345;59.364;18.016;2022-07-01T02:33:34;9.43;;;8.73;;
28028;SDS011;15345;59.364;18.016;2022-07-01T02:34:53;10.07;;;9.25;;
28028;SDS011;15345;59.364;18.016;2022-07-01T02:36:12;9.73;;;8.82;;
28028;SDS011;15345;59.364;18.016;2022-07-01T02:37:30;9.18;;;8.57;;
28028;SDS011;15345;59.364;18.016;2022-07-01T02:38:50;10.57;;;9.68;;
28028;SDS011;15345;59.364;18.016;2022-07-01T02:40:09;10.77;;;9.77;;
28028;SDS011;15345;59.364;18.016;2022-07-01T02:41:28;10.63;;;9.80;;
28028;SDS011;15345;59.364;18.016;2022-07-01T02:42:47;11.80;;;10.73;;
28028;SDS011;15345;59.364;18.016;2022-07-01T02:44:06;12.25;;;11.07;;
28028;SDS011;15345;59.364;18.016;2022-07-01T02:45:25;12.13;;;11.13;;
28028;SDS011;15345;59.364;18.016;2022-07-01T02:46:43;12.50;;;11.50;;
28028;SDS011;15345;59.364;18.016;2022-07-01T02:48:02;11.02;;;10.05;;
28028;SDS011;15345;59.364;18.016;2022-07-01T02:49:21;12.88;;;11.57;;
28028;SDS011;15345;59.364;18.016;2022-07-01T02:50:40;13.75;;;12.45;;
28028;SDS011;15345;59.364;18.016;2022-07-01T02:51:59;14.60;;;13.20;;
28028;SDS011;15345;59.364;18.016;2022-07-01T02:53:18;15.20;;;13.90;;
28028;SDS011;15345;59.364;18.016;2022-07-01T02:54:37;14.25;;;12.98;;
28028;SDS011;15345;59.364;18.016;2022-07-01T02:55:56;14.93;;;12.00;;
28028;SDS011;15345;59.364;18.016;2022-07-01T02:57:15;14.13;;;12.88;;
28028;SDS011;15345;59.364;18.016;2022-07-01T02:58:34;14.48;;;13.13;;
28028;SDS011;15345;59.364;18.016;2022-07-01T02:59:53;14.40;;;13.00;;
28028;SDS011;15345;59.364;18.016;2022-07-01T03:01:12;14.73;;;13.45;;
28028;SDS011;15345;59.364;18.016;2022-07-01T03:02:32;13.15;;;11.98;;
28028;SDS011;15345;59.364;18.016;2022-07-01T03:03:51;14.23;;;12.77;;
28028;SDS011;15345;59.364;18.016;2022-07-01T03:05:11;14.82;;;13.05;;
28028;SDS011;15345;59.364;18.016;2022-07-01T03:06:29;13.95;;;12.55;;
28028;SDS011;15345;59.364;18.016;2022-07-01T03:07:48;13.82;;;12.52;;
28028;SDS011;15345;59.364;18.016;2022-07-01T03:09:07;14.07;;;12.57;;
28028;SDS011;15345;59.364;18.016;2022-07-01T03:10:26;13.80;;;12.68;;
28028;SDS011;15345;59.364;18.016;2022-07-01T03:11:45;13.93;;;12.63;;
28028;SDS011;15345;59.364;18.016;2022-07-01T03:13:04;13.98;;;12.55;;
28028;SDS011;15345;59.364;18.016;2022-07-01T03:14:23;14.57;;;13.10;;
28028;SDS011;15345;59.364;18.016;2022-07-01T03:15:42;17.75;;;13.85;;
28028;SDS011;15345;59.364;18.016;2022-07-01T03:17:01;18.73;;;13.95;;
28028;SDS011;15345;59.364;18.016;2022-07-01T03:18:20;17.27;;;14.02;;
28028;SDS011;15345;59.364;18.016;2022-07-01T03:19:39;15.55;;;13.82;;
28028;SDS011;15345;59.364;18.016;2022-07-01T03:20:58;16.02;;;14.02;;
28028;SDS011;15345;59.364;18.016;2022-07-01T03:22:17;21.27;;;15.45;;
28028;SDS011;15345;59.364;18.016;2022-07-01T03:23:36;16.15;;;14.57;;
28028;SDS011;15345;59.364;18.016;2022-07-01T03:24:55;14.85;;;12.88;;
28028;SDS011;15345;59.364;18.016;2022-07-01T03:26:14;13.68;;;12.25;;
28028;SDS011;15345;59.364;18.016;2022-07-01T03:27:33;14.00;;;12.68;;
28028;SDS011;15345;59.364;18.016;2022-07-01T03:28:52;15.13;;;13.63;;
28028;SDS011;15345;59.364;18.016;2022-07-01T03:30:12;14.80;;;12.25;;
28028;SDS011;15345;59.364;18.016;2022-07-01T03:31:32;15.80;;;14.02;;
28028;SDS011;15345;59.364;18.016;2022-07-01T03:32:51;14.15;;;12.95;;
28028;SDS011;15345;59.364;18.016;2022-07-01T03:34:10;13.55;;;12.35;;
28028;SDS011;15345;59.364;18.016;2022-07-01T03:35:29;15.15;;;13.55;;
28028;SDS011;15345;59.364;18.016;2022-07-01T03:36:54;16.45;;;14.88;;
28028;SDS011;15345;59.364;18.016;2022-07-01T03:38:13;14.68;;;13.38;;
28028;SDS011;15345;59.364;18.016;2022-07-01T03:39:32;15.88;;;14.32;;
28028;SDS011;15345;59.364;18.016;2022-07-01T03:40:50;15.57;;;13.98;;
28028;SDS011;15345;59.364;18.016;2022-07-01T03:42:09;15.20;;;13.88;;
28028;SDS011;15345;59.364;18.016;2022-07-01T03:43:28;16.20;;;13.98;;
28028;SDS011;15345;59.364;18.016;2022-07-01T03:44:46;16.00;;;13.70;;
28028;SDS011;15345;59.364;18.016;2022-07-01T03:46:05;15.63;;;14.00;;
28028;SDS011;15345;59.364;18.016;2022-07-01T03:47:24;18.70;;;14.90;;
28028;SDS011;15345;59.364;18.016;2022-07-01T03:48:43;15.93;;;13.55;;
28028;SDS011;15345;59.364;18.016;2022-07-01T03:50:02;14.38;;;13.07;;
28028;SDS011;15345;59.364;18.016;2022-07-01T03:51:21;17.40;;;13.55;;
28028;SDS011;15345;59.364;18.016;2022-07-01T03:52:39;15.38;;;12.90;;
28028;SDS011;15345;59.364;18.016;2022-07-01T03:54:00;13.75;;;12.45;;
28028;SDS011;15345;59.364;18.016;2022-07-01T03:55:38;14.45;;;12.82;;
28028;SDS011;15345;59.364;18.016;2022-07-01T03:56:58;14.90;;;13.38;;
28028;SDS011;15345;59.364;18.016;2022-07-01T03:58:17;16.23;;;12.43;;
28028;SDS011;15345;59.364;18.016;2022-07-01T03:59:36;16.48;;;13.20;;
28028;SDS011;15345;59.364;18.016;2022-07-01T04:00:56;13.75;;;12.40;;
28028;SDS011;15345;59.364;18.016;2022-07-01T04:02:15;13.50;;;12.30;;
28028;SDS011;15345;59.364;18.016;2022-07-01T04:03:34;15.00;;;13.18;;
28028;SDS011;15345;59.364;18.016;2022-07-01T04:04:53;18.77;;;12.32;;
28028;SDS011;15345;59.364;18.016;2022-07-01T04:06:14;14.45;;;12.93;;
28028;SDS011;15345;59.364;18.016;2022-07-01T04:07:33;14.85;;;12.70;;
28028;SDS011;15345;59.364;18.016;2022-07-01T04:08:53;14.60;;;13.20;;
28028;SDS011;15345;59.364;18.016;2022-07-01T04:10:12;14.85;;;13.45;;
28028;SDS011;15345;59.364;18.016;2022-07-01T04:11:31;14.45;;;12.93;;
28028;SDS011;15345;59.364;18.016;2022-07-01T04:12:50;15.80;;;13.27;;
28028;SDS011;15345;59.364;18.016;2022-07-01T04:14:09;14.20;;;12.30;;
28028;SDS011;15345;59.364;18.016;2022-07-01T04:15:28;15.55;;;13.93;;
28028;SDS011;15345;59.364;18.016;2022-07-01T04:16:47;15.80;;;13.35;;
28028;SDS011;15345;59.364;18.016;2022-07-01T04:18:06;15.90;;;12.68;;
28028;SDS011;15345;59.364;18.016;2022-07-01T04:19:26;13.30;;;11.52;;
28028;SDS011;15345;59.364;18.016;2022-07-01T04:20:45;13.65;;;12.27;;
28028;SDS011;15345;59.364;18.016;2022-07-01T04:22:27;13.88;;;12.55;;
28028;SDS011;15345;59.364;18.016;2022-07-01T04:23:52;12.90;;;11.70;;
28028;SDS011;15345;59.364;18.016;2022-07-01T04:25:12;13.45;;;12.10;;
28028;SDS011;15345;59.364;18.016;2022-07-01T04:26:30;12.27;;;11.00;;
28028;SDS011;15345;59.364;18.016;2022-07-01T04:27:49;15.02;;;11.32;;
28028;SDS011;15345;59.364;18.016;2022-07-01T04:29:09;13.02;;;11.30;;
28028;SDS011;15345;59.364;18.016;2022-07-01T04:30:28;12.30;;;10.98;;
28028;SDS011;15345;59.364;18.016;2022-07-01T04:31:47;11.13;;;10.23;;
28028;SDS011;15345;59.364;18.016;2022-07-01T04:33:06;12.45;;;10.75;;
28028;SDS011;15345;59.364;18.016;2022-07-01T04:34:25;10.77;;;9.90;;
28028;SDS011;15345;59.364;18.016;2022-07-01T04:35:44;11.13;;;9.80;;
28028;SDS011;15345;59.364;18.016;2022-07-01T04:37:03;13.40;;;10.43;;
28028;SDS011;15345;59.364;18.016;2022-07-01T04:38:23;11.60;;;9.60;;
28028;SDS011;15345;59.364;18.016;2022-07-01T04:39:41;10.25;;;9.07;;
28028;SDS011;15345;59.364;18.016;2022-07-01T04:41:00;9.02;;;8.18;;
28028;SDS011;15345;59.364;18.016;2022-07-01T04:42:38;13.52;;;8.63;;
28028;SDS011;15345;59.364;18.016;2022-07-01T04:43:57;10.50;;;9.35;;
28028;SDS011;15345;59.364;18.016;2022-07-01T04:45:16;11.60;;;8.65;;
28028;SDS011;15345;59.364;18.016;2022-07-01T04:46:35;9.32;;;8.27;;
28028;SDS011;15345;59.364;18.016;2022-07-01T04:47:54;8.80;;;7.90;;
28028;SDS011;15345;59.364;18.016;2022-07-01T04:49:13;8.63;;;7.78;;
28028;SDS011;15345;59.364;18.016;2022-07-01T04:50:32;10.68;;;7.82;;
28028;SDS011;15345;59.364;18.016;2022-07-01T04:51:51;7.90;;;7.18;;
28028;SDS011;15345;59.364;18.016;2022-07-01T04:53:12;11.50;;;7.28;;
28028;SDS011;15345;59.364;18.016;2022-07-01T04:54:31;10.02;;;7.38;;
28028;SDS011;15345;59.364;18.016;2022-07-01T04:55:49;9.20;;;7.13;;
28028;SDS011;15345;59.364;18.016;2022-07-01T04:57:08;8.30;;;6.53;;
28028;SDS011;15345;59.364;18.016;2022-07-01T04:58:27;8.05;;;7.10;;
28028;SDS011;15345;59.364;18.016;2022-07-01T04:59:46;7.50;;;6.68;;
28028;SDS011;15345;59.364;18.016;2022-07-01T05:01:05;8.38;;;6.10;;
28028;SDS011;15345;59.364;18.016;2022-07-01T05:02:24;10.85;;;6.75;;
28028;SDS011;15345;59.364;18.016;2022-07-01T05:03:43;8.00;;;6.32;;
28028;SDS011;15345;59.364;18.016;2022-07-01T05:05:02;6.63;;;5.90;;
28028;SDS011;15345;59.364;18.016;2022-07-01T05:06:21;11.75;;;5.68;;
28028;SDS011;15345;59.364;18.016;2022-07-01T05:07:40;9.73;;;6.15;;
28028;SDS011;15345;59.364;18.016;2022-07-01T05:08:59;8.57;;;5.78;;
28028;SDS011;15345;59.364;18.016;2022-07-01T05:10:18;9.43;;;5.18;;
28028;SDS011;15345;59.364;18.016;2022-07-01T05:11:37;9.23;;;5.00;;
28028;SDS011;15345;59.364;18.016;2022-07-01T05:12:57;9.05;;;5.13;;
28028;SDS011;15345;59.364;18.016;2022-07-01T05:14:16;8.68;;;5.50;;
28028;SDS011;15345;59.364;18.016;2022-07-01T05:15:35;9.15;;;5.60;;
28028;SDS011;15345;59.364;18.016;2022-07-01T05:16:54;8.57;;;5.32;;
28028;SDS011;15345;59.364;18.016;2022-07-01T05:18:13;9.35;;;5.35;;
28028;SDS011;15345;59.364;18.016;2022-07-01T05:19:51;6.00;;;4.80;;
28028;SDS011;15345;59.364;18.016;2022-07-01T05:21:29;6.55;;;5.28;;
28028;SDS011;15345;59.364;18.016;2022-07-01T05:23:07;5.35;;;4.60;;
28028;SDS011;15345;59.364;18.016;2022-07-01T05:24:31;9.32;;;5.18;;
28028;SDS011;15345;59.364;18.016;2022-07-01T05:25:50;9.02;;;4.78;;
28028;SDS011;15345;59.364;18.016;2022-07-01T05:27:09;6.57;;;5.45;;
28028;SDS011;15345;59.364;18.016;2022-07-01T05:28:28;8.05;;;5.50;;
28028;SDS011;15345;59.364;18.016;2022-07-01T05:29:47;5.63;;;4.93;;
28028;SDS011;15345;59.364;18.016;2022-07-01T05:31:06;8.93;;;4.82;;
28028;SDS011;15345;59.364;18.016;2022-07-01T05:32:25;7.05;;;4.93;;
28028;SDS011;15345;59.364;18.016;2022-07-01T05:33:44;6.13;;;5.15;;
28028;SDS011;15345;59.364;18.016;2022-07-01T05:35:02;8.40;;;5.78;;
28028;SDS011;15345;59.364;18.016;2022-07-01T05:36:21;6.10;;;4.72;;
28028;SDS011;15345;59.364;18.016;2022-07-01T05:37:40;7.65;;;5.28;;
28028;SDS011;15345;59.364;18.016;2022-07-01T05:38:59;5.80;;;5.20;;
28028;SDS011;15345;59.364;18.016;2022-07-01T05:40:18;9.13;;;5.60;;
28028;SDS011;15345;59.364;18.016;2022-07-01T05:41:37;9.55;;;5.07;;
28028;SDS011;15345;59.364;18.016;2022-07-01T05:42:56;7.95;;;5.43;;
28028;SDS011;15345;59.364;18.016;2022-07-01T05:44:15;6.18;;;5.57;;
28028;SDS011;15345;59.364;18.016;2022-07-01T05:45:34;7.65;;;5.15;;
28028;SDS011;15345;59.364;18.016;2022-07-01T05:46:52;6.60;;;5.00;;
28028;SDS011;15345;59.364;18.016;2022-07-01T05:48:11;7.38;;;5.15;;
28028;SDS011;15345;59.364;18.016;2022-07-01T05:49:30;9.68;;;5.47;;
28028;SDS011;15345;59.364;18.016;2022-07-01T05:50:49;11.52;;;5.72;;
28028;SDS011;15345;59.364;18.016;2022-07-01T05:52:08;7.65;;;5.20;;
28028;SDS011;15345;59.364;18.016;2022-07-01T05:53:28;9.27;;;5.38;;
28028;SDS011;15345;59.364;18.016;2022-07-01T05:54:46;8.30;;;4.85;;
28028;SDS011;15345;59.364;18.016;2022-07-01T05:56:06;7.13;;;5.38;;
28028;SDS011;15345;59.364;18.016;2022-07-01T05:57:24;9.88;;;5.25;;
28028;SDS011;15345;59.364;18.016;2022-07-01T05:58:43;7.15;;;5.20;;
28028;SDS011;15345;59.364;18.016;2022-07-01T06:00:03;7.47;;;5.45;;
28028;SDS011;15345;59.364;18.016;2022-07-01T06:01:22;8.05;;;5.78;;
28028;SDS011;15345;59.364;18.016;2022-07-01T06:02:41;9.82;;;5.68;;
28028;SDS011;15345;59.364;18.016;2022-07-01T06:04:00;8.63;;;5.50;;
28028;SDS011;15345;59.364;18.016;2022-07-01T06:05:20;8.20;;;5.60;;
28028;SDS011;15345;59.364;18.016;2022-07-01T06:06:39;5.80;;;5.22;;
28028;SDS011;15345;59.364;18.016;2022-07-01T06:07:58;7.53;;;5.30;;
28028;SDS011;15345;59.364;18.016;2022-07-01T06:09:17;9.18;;;5.45;;
28028;SDS011;15345;59.364;18.016;2022-07-01T06:10:36;10.20;;;6.30;;
28028;SDS011;15345;59.364;18.016;2022-07-01T06:11:55;8.65;;;6.18;;
28028;SDS011;15345;59.364;18.016;2022-07-01T06:13:14;10.75;;;6.43;;
28028;SDS011;15345;59.364;18.016;2022-07-01T06:14:33;8.75;;;6.20;;
28028;SDS011;15345;59.364;18.016;2022-07-01T06:15:52;9.23;;;6.15;;
28028;SDS011;15345;59.364;18.016;2022-07-01T06:17:11;10.43;;;7.03;;
28028;SDS011;15345;59.364;18.016;2022-07-01T06:18:32;10.02;;;5.85;;
28028;SDS011;15345;59.364;18.016;2022-07-01T06:19:50;11.77;;;6.40;;
28028;SDS011;15345;59.364;18.016;2022-07-01T06:21:11;11.90;;;6.78;;
28028;SDS011;15345;59.364;18.016;2022-07-01T06:22:31;9.65;;;6.63;;
28028;SDS011;15345;59.364;18.016;2022-07-01T06:23:50;14.18;;;7.18;;
28028;SDS011;15345;59.364;18.016;2022-07-01T06:25:09;11.73;;;7.40;;
28028;SDS011;15345;59.364;18.016;2022-07-01T06:26:28;7.68;;;6.50;;
28028;SDS011;15345;59.364;18.016;2022-07-01T06:27:47;9.43;;;6.53;;
28028;SDS011;15345;59.364;18.016;2022-07-01T06:29:06;7.78;;;6.43;;
28028;SDS011;15345;59.364;18.016;2022-07-01T06:30:25;10.45;;;6.88;;
28028;SDS011;15345;59.364;18.016;2022-07-01T06:31:44;14.95;;;6.90;;
28028;SDS011;15345;59.364;18.016;2022-07-01T06:33:03;11.10;;;6.63;;
28028;SDS011;15345;59.364;18.016;2022-07-01T06:34:22;10.63;;;6.55;;
28028;SDS011;15345;59.364;18.016;2022-07-01T06:35:41;14.48;;;6.85;;
28028;SDS011;15345;59.364;18.016;2022-07-01T06:37:00;10.38;;;6.75;;
28028;SDS011;15345;59.364;18.016;2022-07-01T06:38:20;9.77;;;6.18;;
28028;SDS011;15345;59.364;18.016;2022-07-01T06:39:39;10.35;;;6.53;;
28028;SDS011;15345;59.364;18.016;2022-07-01T06:40:58;9.60;;;6.28;;
28028;SDS011;15345;59.364;18.016;2022-07-01T06:42:36;7.65;;;5.80;;
28028;SDS011;15345;59.364;18.016;2022-07-01T06:43:55;11.65;;;6.78;;
28028;SDS011;15345;59.364;18.016;2022-07-01T06:45:14;8.35;;;6.60;;
28028;SDS011;15345;59.364;18.016;2022-07-01T06:46:33;11.27;;;6.80;;
28028;SDS011;15345;59.364;18.016;2022-07-01T06:47:52;13.07;;;7.35;;
28028;SDS011;15345;59.364;18.016;2022-07-01T06:49:11;8.43;;;6.60;;
28028;SDS011;15345;59.364;18.016;2022-07-01T06:50:30;10.10;;;6.68;;
28028;SDS011;15345;59.364;18.016;2022-07-01T06:51:49;7.85;;;6.45;;
28028;SDS011;15345;59.364;18.016;2022-07-01T06:53:08;11.20;;;6.90;;
28028;SDS011;15345;59.364;18.016;2022-07-01T06:54:27;14.30;;;6.97;;
28028;SDS011;15345;59.364;18.016;2022-07-01T06:55:47;9.07;;;6.53;;
28028;SDS011;15345;59.364;18.016;2022-07-01T06:57:06;11.15;;;6.93;;
28028;SDS011;15345;59.364;18.016;2022-07-01T06:58:25;7.47;;;6.07;;
28028;SDS011;15345;59.364;18.016;2022-07-01T06:59:44;6.97;;;5.97;;
28028;SDS011;15345;59.364;18.016;2022-07-01T07:01:03;10.07;;;6.38;;
28028;SDS011;15345;59.364;18.016;2022-07-01T07:02:22;9.55;;;5.82;;
28028;SDS011;15345;59.364;18.016;2022-07-01T07:03:41;8.35;;;6.35;;
28028;SDS011;15345;59.364;18.016;2022-07-01T07:05:00;9.30;;;5.93;;
28028;SDS011;15345;59.364;18.016;2022-07-01T07:06:19;9.00;;;6.45;;
28028;SDS011;15345;59.364;18.016;2022-07-01T07:07:38;8.50;;;5.28;;
28028;SDS011;15345;59.364;18.016;2022-07-01T07:08:56;8.82;;;5.50;;
28028;SDS011;15345;59.364;18.016;2022-07-01T07:10:15;9.15;;;5.30;;
28028;SDS011;15345;59.364;18.016;2022-07-01T07:11:34;6.35;;;5.25;;
28028;SDS011;15345;59.364;18.016;2022-07-01T07:12:54;12.38;;;5.07;;
28028;SDS011;15345;59.364;18.016;2022-07-01T07:14:13;8.52;;;5.93;;
28028;SDS011;15345;59.364;18.016;2022-07-01T07:15:32;9.32;;;5.30;;
28028;SDS011;15345;59.364;18.016;2022-07-01T07:16:50;5.63;;;4.82;;
28028;SDS011;15345;59.364;18.016;2022-07-01T07:18:12;8.20;;;4.55;;
28028;SDS011;15345;59.364;18.016;2022-07-01T07:19:31;5.53;;;4.25;;
28028;SDS011;15345;59.364;18.016;2022-07-01T07:20:50;9.63;;;5.05;;
28028;SDS011;15345;59.364;18.016;2022-07-01T07:22:08;6.07;;;4.38;;
28028;SDS011;15345;59.364;18.016;2022-07-01T07:23:27;8.38;;;4.35;;
28028;SDS011;15345;59.364;18.016;2022-07-01T07:24:46;6.15;;;4.10;;
28028;SDS011;15345;59.364;18.016;2022-07-01T07:26:05;6.53;;;4.20;;
28028;SDS011;15345;59.364;18.016;2022-07-01T07:27:24;7.38;;;4.85;;
28028;SDS011;15345;59.364;18.016;2022-07-01T07:28:43;6.32;;;4.65;;
28028;SDS011;15345;59.364;18.016;2022-07-01T07:30:01;8.15;;;5.30;;
28028;SDS011;15345;59.364;18.016;2022-07-01T07:31:21;8.70;;;5.78;;
28028;SDS011;15345;59.364;18.016;2022-07-01T07:32:40;7.43;;;5.30;;
28028;SDS011;15345;59.364;18.016;2022-07-01T07:33:59;13.48;;;5.97;;
28028;SDS011;15345;59.364;18.016;2022-07-01T07:35:18;7.18;;;5.85;;
28028;SDS011;15345;59.364;18.016;2022-07-01T07:36:37;6.97;;;6.30;;
28028;SDS011;15345;59.364;18.016;2022-07-01T07:37:57;10.60;;;5.90;;
28028;SDS011;15345;59.364;18.016;2022-07-01T07:39:16;11.85;;;6.32;;
28028;SDS011;15345;59.364;18.016;2022-07-01T07:40:34;6.75;;;5.82;;
28028;SDS011;15345;59.364;18.016;2022-07-01T07:41:53;9.27;;;6.90;;
28028;SDS011;15345;59.364;18.016;2022-07-01T07:43:12;10.57;;;6.65;;
28028;SDS011;15345;59.364;18.016;2022-07-01T07:44:31;10.80;;;6.50;;
28028;SDS011;15345;59.364;18.016;2022-07-01T07:45:50;9.82;;;7.22;;